createdAt,value
2022-11-22T00:01:24.235Z,2.13
2022-11-22T00:03:52.368Z,7.80
2022-11-22T00:06:20.560Z,3.43
2022-11-22T00:08:50.133Z,4.67
2022-11-22T00:11:18.298Z,3.00
2022-11-22T00:13:46.542Z,4.40
2022-11-22T00:16:14.657Z,3.23
2022-11-22T00:18:42.754Z,7.63
2022-11-22T00:21:11.357Z,4.50
2022-11-22T00:23:39.475Z,2.53
2022-11-22T00:26:13.931Z,6.00
2022-11-22T00:28:42.082Z,3.80
2022-11-22T00:31:10.236Z,4.77
2022-11-22T00:33:38.418Z,5.20
2022-11-22T00:36:06.729Z,2.97
2022-11-22T00:38:34.934Z,5.73
2022-11-22T00:41:03.325Z,4.30
2022-11-22T00:43:32.909Z,6.87
2022-11-22T00:46:01.489Z,3.37
2022-11-22T00:48:29.829Z,4.93
2022-11-22T00:50:58.148Z,3.63
2022-11-22T00:53:26.652Z,3.37
2022-11-22T00:55:54.909Z,5.33
2022-11-22T00:58:23.010Z,2.83
2022-11-22T01:00:56.441Z,4.00
2022-11-22T01:03:25.495Z,2.30
2022-11-22T01:05:56.375Z,2.47
2022-11-22T01:08:24.663Z,4.07
2022-11-22T01:10:57.671Z,4.47
2022-11-22T01:13:26.377Z,3.17
2022-11-22T01:15:59.822Z,3.30
2022-11-22T01:18:27.990Z,3.13
2022-11-22T01:20:56.217Z,3.37
2022-11-22T01:23:24.428Z,6.33
2022-11-22T01:25:52.728Z,3.50
2022-11-22T01:28:23.698Z,4.33
2022-11-22T01:30:52.743Z,5.07
2022-11-22T01:33:22.597Z,4.80
2022-11-22T01:35:50.851Z,4.37
2022-11-22T01:38:19.019Z,3.13
2022-11-22T01:40:47.231Z,4.77
2022-11-22T01:43:18.918Z,4.43
2022-11-22T01:45:52.611Z,3.37
2022-11-22T01:48:36.575Z,3.60
2022-11-22T01:51:08.397Z,2.60
2022-11-22T01:53:39.921Z,2.03
2022-11-22T01:56:12.601Z,3.63
2022-11-22T01:58:44.187Z,1.40
2022-11-22T02:01:12.957Z,4.33
2022-11-22T02:03:48.352Z,5.00
2022-11-22T02:06:18.017Z,1.53
2022-11-22T02:08:53.888Z,2.40
2022-11-22T02:11:23.110Z,3.60
2022-11-22T02:13:53.527Z,2.30
2022-11-22T02:16:21.966Z,2.90
2022-11-22T02:18:51.523Z,3.50
2022-11-22T02:21:20.068Z,2.50
2022-11-22T02:23:56.811Z,2.33
2022-11-22T02:26:29.416Z,2.93
2022-11-22T02:29:02.070Z,2.17
2022-11-22T02:31:40.341Z,2.53
2022-11-22T02:34:08.640Z,2.53
2022-11-22T02:36:40.750Z,3.93
2022-11-22T02:39:10.904Z,2.67
2022-11-22T02:41:41.331Z,2.70
2022-11-22T02:44:13.905Z,3.33
2022-11-22T02:46:51.561Z,3.17
2022-11-22T02:49:20.873Z,5.73
2022-11-22T02:51:49.479Z,2.90
2022-11-22T02:54:17.862Z,2.53
2022-11-22T02:56:47.661Z,2.57
2022-11-22T02:59:16.038Z,5.20
2022-11-22T03:01:47.627Z,2.47
2022-11-22T03:04:24.715Z,3.40
2022-11-22T03:06:55.476Z,3.77
2022-11-22T03:09:24.584Z,6.03
2022-11-22T03:11:54.954Z,1.30
2022-11-22T03:14:23.170Z,4.30
2022-11-22T03:16:51.655Z,4.53
2022-11-22T03:19:20.138Z,6.00
2022-11-22T03:21:48.378Z,2.47
2022-11-22T03:24:16.614Z,5.27
2022-11-22T03:26:48.901Z,6.83
2022-11-22T03:29:18.720Z,3.40
2022-11-22T03:31:46.872Z,7.33
2022-11-22T03:34:15.669Z,4.57
2022-11-22T03:36:44.173Z,4.37
2022-11-22T03:39:12.346Z,8.10
2022-11-22T03:41:40.517Z,4.43
2022-11-22T03:44:08.773Z,4.87
2022-11-22T03:46:38.316Z,4.03
2022-11-22T03:49:06.448Z,4.83
2022-11-22T03:51:34.631Z,2.57
2022-11-22T03:54:02.760Z,2.40
2022-11-22T03:56:31.132Z,3.27
2022-11-22T03:58:59.337Z,4.00
2022-11-22T04:01:27.563Z,4.50
2022-11-22T04:03:57.230Z,4.60
2022-11-22T04:06:25.406Z,6.50
2022-11-22T04:08:53.584Z,6.07
2022-11-22T04:11:21.719Z,4.20
2022-11-22T04:14:07.561Z,5.87
2022-11-22T04:16:35.962Z,6.23
2022-11-22T04:19:05.722Z,5.83
2022-11-22T04:21:35.540Z,5.00
2022-11-22T04:24:22.306Z,5.37
2022-11-22T04:26:50.526Z,7.00
2022-11-22T04:29:20.098Z,10.40
2022-11-22T04:32:06.726Z,5.50
2022-11-22T04:34:37.226Z,6.20
2022-11-22T04:37:06.250Z,3.97
2022-11-22T04:39:34.809Z,3.83
2022-11-22T04:42:20.363Z,4.90
2022-11-22T04:44:48.579Z,11.53
2022-11-22T04:47:39.794Z,19.70
2022-11-22T04:50:24.129Z,15.73
2022-11-22T04:52:54.927Z,15.83
2022-11-22T04:55:23.419Z,12.73
2022-11-22T04:57:57.595Z,9.63
2022-11-22T05:00:28.439Z,8.63
2022-11-22T05:02:56.785Z,7.63
2022-11-22T05:05:26.798Z,9.10
2022-11-22T05:07:54.998Z,7.60
2022-11-22T05:10:26.819Z,7.00
2022-11-22T05:12:55.518Z,18.43
2022-11-22T05:15:23.878Z,4.33
2022-11-22T05:17:52.063Z,8.20
2022-11-22T05:20:20.415Z,4.30
2022-11-22T05:23:07.776Z,12.13
2022-11-22T05:25:38.264Z,6.20
2022-11-22T05:28:09.394Z,7.27
2022-11-22T05:30:40.149Z,10.23
2022-11-22T05:33:08.927Z,10.67
2022-11-22T05:35:37.039Z,8.63
2022-11-22T05:38:06.755Z,7.03
2022-11-22T05:40:34.910Z,8.33
2022-11-22T05:43:03.122Z,10.93
2022-11-22T05:45:31.374Z,8.00
2022-11-22T05:47:59.548Z,58.50
2022-11-22T05:50:27.777Z,41.53
2022-11-22T05:52:56.038Z,19.33
2022-11-22T05:55:25.623Z,15.43
2022-11-22T05:57:53.794Z,9.47
2022-11-22T06:00:22.318Z,8.87
2022-11-22T06:02:50.518Z,5.90
2022-11-22T06:05:18.773Z,6.83
2022-11-22T06:07:47.537Z,5.57
2022-11-22T06:10:16.000Z,10.87
2022-11-22T06:12:45.505Z,10.53
2022-11-22T06:15:13.781Z,6.07
2022-11-22T06:17:42.114Z,5.03
2022-11-22T06:20:11.312Z,7.03
2022-11-22T06:22:39.572Z,5.20
2022-11-22T06:25:08.915Z,4.63
2022-11-22T06:27:37.100Z,7.93
2022-11-22T06:30:08.412Z,5.90
2022-11-22T06:32:36.769Z,4.07
2022-11-22T06:35:05.370Z,7.30
2022-11-22T06:37:33.564Z,44.77
2022-11-22T06:40:01.847Z,82.80
2022-11-22T06:42:30.338Z,53.43
2022-11-22T06:44:58.727Z,25.83
2022-11-22T06:47:28.418Z,18.27
2022-11-22T06:49:56.597Z,11.27
2022-11-22T06:52:26.540Z,6.33
2022-11-22T06:54:54.984Z,8.13
2022-11-22T06:57:23.388Z,6.20
2022-11-22T06:59:52.134Z,13.00
2022-11-22T07:02:20.427Z,9.83
2022-11-22T07:05:17.178Z,7.57
2022-11-22T07:07:39.593Z,8.03
2022-11-22T07:10:08.685Z,8.50
2022-11-22T07:12:36.919Z,8.00
2022-11-22T07:15:05.599Z,9.97
2022-11-22T07:17:33.929Z,12.23
2022-11-22T07:20:07.973Z,5.30
2022-11-22T07:22:36.455Z,5.73
2022-11-22T07:25:05.362Z,5.80
2022-11-22T07:27:33.702Z,7.93
2022-11-22T07:30:02.012Z,10.23
2022-11-22T07:32:33.228Z,7.07
2022-11-22T07:35:01.763Z,40.50
2022-11-22T07:37:32.405Z,14.63
2022-11-22T07:40:00.619Z,13.83
2022-11-22T07:42:29.078Z,7.93
2022-11-22T07:44:57.372Z,11.10
2022-11-22T07:47:25.716Z,9.20
2022-11-22T07:49:54.051Z,5.67
2022-11-22T07:52:22.780Z,7.40
2022-11-22T07:54:52.497Z,9.13
2022-11-22T07:57:20.773Z,8.30
2022-11-22T07:59:49.119Z,4.37
2022-11-22T08:02:17.464Z,5.43
2022-11-22T08:04:46.003Z,7.57
2022-11-22T08:07:14.468Z,5.80
2022-11-22T08:09:42.737Z,10.50
2022-11-22T08:12:12.312Z,6.57
2022-11-22T08:14:41.804Z,9.90
2022-11-22T08:17:10.413Z,7.50
2022-11-22T08:19:39.234Z,6.37
2022-11-22T08:22:07.460Z,27.63
2022-11-22T08:24:38.602Z,92.60
2022-11-22T08:27:06.932Z,55.63
2022-11-22T08:29:36.661Z,27.60
2022-11-22T08:32:05.357Z,17.37
2022-11-22T08:34:34.411Z,12.47
2022-11-22T08:37:02.716Z,18.50
2022-11-22T08:39:31.559Z,9.20
2022-11-22T08:41:59.910Z,5.27
2022-11-22T08:44:28.097Z,6.93
2022-11-22T08:46:57.632Z,6.03
2022-11-22T08:49:25.943Z,5.17
2022-11-22T08:51:54.129Z,5.13
2022-11-22T08:54:22.334Z,10.87
2022-11-22T08:56:50.475Z,4.97
2022-11-22T08:59:18.820Z,4.93
2022-11-22T09:01:47.061Z,5.97
2022-11-22T09:04:16.778Z,4.80
2022-11-22T09:09:38.177Z,4.97
2022-11-22T09:12:07.822Z,6.47
2022-11-22T09:14:36.265Z,65.80
2022-11-22T09:17:05.795Z,45.23
2022-11-22T09:19:35.416Z,19.30
2022-11-22T09:22:03.801Z,12.87
2022-11-22T09:24:32.153Z,11.10
2022-11-22T09:27:00.544Z,6.83
2022-11-22T09:29:29.080Z,3.57
2022-11-22T09:31:57.761Z,5.90
2022-11-22T09:34:29.023Z,5.70
2022-11-22T09:36:58.607Z,2.93
2022-11-22T09:39:27.107Z,4.27
2022-11-22T09:42:27.996Z,3.27
2022-11-22T09:45:21.309Z,2.97
2022-11-22T09:48:08.221Z,4.30
2022-11-22T09:50:47.939Z,3.10
2022-11-22T09:53:24.062Z,6.80
2022-11-22T09:55:55.607Z,7.63
2022-11-22T09:58:30.892Z,6.07
2022-11-22T10:01:04.562Z,7.13
2022-11-22T10:03:42.195Z,5.47
2022-11-22T10:06:19.309Z,4.80
2022-11-22T10:08:58.279Z,2.50
2022-11-22T10:11:36.816Z,5.70
2022-11-22T10:14:13.388Z,6.97
2022-11-22T10:16:48.198Z,5.40
2022-11-22T10:19:22.138Z,4.27
2022-11-22T10:21:50.626Z,6.97
2022-11-22T10:24:20.837Z,29.30
2022-11-22T10:26:50.045Z,59.43
2022-11-22T10:29:27.159Z,36.50
2022-11-22T10:32:03.892Z,20.13
2022-11-22T10:34:50.051Z,12.30
2022-11-22T10:37:29.239Z,7.03
2022-11-22T10:40:09.438Z,9.33
2022-11-22T10:43:06.400Z,11.30
2022-11-22T10:45:40.342Z,12.43
2022-11-22T10:48:22.103Z,3.90
2022-11-22T10:51:00.199Z,3.00
2022-11-22T10:53:42.040Z,4.60
2022-11-22T10:56:20.101Z,2.40
2022-11-22T10:59:01.788Z,1.93
2022-11-22T11:01:38.114Z,3.60
2022-11-22T11:04:09.012Z,2.80
2022-11-22T11:07:12.419Z,3.70
2022-11-22T11:12:43.076Z,2.10
2022-11-22T11:15:19.344Z,2.50
2022-11-22T11:17:50.137Z,4.43
2022-11-22T11:20:27.003Z,4.80
2022-11-22T11:25:45.141Z,1.97
2022-11-22T11:28:19.650Z,2.00
2022-11-22T11:30:50.631Z,4.13
2022-11-22T11:33:22.471Z,1.17
2022-11-22T11:35:54.980Z,3.20
2022-11-22T11:38:31.517Z,5.07
2022-11-22T11:40:59.978Z,2.70
2022-11-22T11:43:29.499Z,1.83
2022-11-22T11:46:17.841Z,2.40
2022-11-22T11:48:46.342Z,1.60
2022-11-22T11:51:25.618Z,1.23
2022-11-22T11:54:15.794Z,10.20
2022-11-22T11:56:49.681Z,44.30
2022-11-22T11:59:21.062Z,25.23
2022-11-22T12:01:54.466Z,11.73
2022-11-22T12:04:26.590Z,9.63
2022-11-22T12:07:03.463Z,3.80
2022-11-22T12:09:35.144Z,3.27
2022-11-22T12:12:23.550Z,2.73
2022-11-22T12:17:56.044Z,1.33
2022-11-22T12:20:31.182Z,3.30
2022-11-22T12:23:10.945Z,1.73
2022-11-22T12:25:41.042Z,2.43
2022-11-22T12:28:18.671Z,3.97
2022-11-22T12:30:52.449Z,2.73
2022-11-22T12:33:26.958Z,1.10
2022-11-22T12:35:57.711Z,1.30
2022-11-22T12:38:32.791Z,2.50
2022-11-22T12:41:04.510Z,1.20
2022-11-22T12:43:38.832Z,1.53
2022-11-22T12:46:13.334Z,1.40
2022-11-22T12:48:23.574Z,2.40
2022-11-22T12:48:48.901Z,1.63
2022-11-22T12:51:24.371Z,1.00
2022-11-22T12:53:54.322Z,1.90
2022-11-22T12:56:32.972Z,1.00
2022-11-22T12:59:09.382Z,1.53
2022-11-22T13:01:46.467Z,2.20
2022-11-22T13:04:20.357Z,1.20
2022-11-22T13:06:56.365Z,2.87
2022-11-22T13:09:30.188Z,1.13
2022-11-22T13:12:02.211Z,0.93
2022-11-22T13:14:35.552Z,1.00
2022-11-22T13:17:09.118Z,1.13
2022-11-22T13:19:46.365Z,1.57
2022-11-22T13:22:23.645Z,49.73
2022-11-22T13:25:08.760Z,68.83
2022-11-22T13:27:40.290Z,26.63
2022-11-22T13:30:19.965Z,20.10
2022-11-22T13:32:52.776Z,9.53
2022-11-22T13:35:30.320Z,6.13
2022-11-22T13:38:01.007Z,3.47
2022-11-22T13:40:31.245Z,2.47
2022-11-22T13:43:34.622Z,1.50
2022-11-22T13:46:04.449Z,1.50
2022-11-22T13:49:15.956Z,2.00
2022-11-22T13:51:56.150Z,1.10
2022-11-22T13:54:57.095Z,1.10
2022-11-22T13:57:32.126Z,1.23
2022-11-22T14:00:42.748Z,1.63
2022-11-22T14:03:37.150Z,1.50
2022-11-22T14:06:29.699Z,1.33
2022-11-22T14:09:17.530Z,2.30
2022-11-22T14:11:58.534Z,1.53
2022-11-22T14:14:35.017Z,2.20
2022-11-22T14:17:17.770Z,1.30
2022-11-22T14:20:02.101Z,2.50
2022-11-22T14:22:44.309Z,1.20
2022-11-22T14:25:45.138Z,1.47
2022-11-22T14:28:27.247Z,1.93
2022-11-22T14:30:55.563Z,1.30
2022-11-22T14:33:25.502Z,1.47
2022-11-22T14:36:17.490Z,1.27
2022-11-22T14:38:48.689Z,0.80
2022-11-22T14:41:53.570Z,1.00
2022-11-22T14:44:27.423Z,2.40
2022-11-22T14:47:00.150Z,3.03
2022-11-22T14:49:43.564Z,0.70
2022-11-22T14:52:22.467Z,54.17
2022-11-22T14:54:56.079Z,79.60
2022-11-22T14:57:27.513Z,38.10
2022-11-22T15:00:15.676Z,24.87
2022-11-22T15:03:17.171Z,10.90
2022-11-22T15:09:12.288Z,5.93
2022-11-22T15:09:46.518Z,3.00
2022-11-22T15:12:34.410Z,1.40
2022-11-22T15:57:26.812Z,0.67
2022-11-22T15:59:56.629Z,1.77
2022-11-22T16:02:30.204Z,49.50
2022-11-22T16:06:07.516Z,87.90
2022-11-22T16:07:50.874Z,40.03
2022-11-22T16:10:21.959Z,27.00
2022-11-22T16:12:50.766Z,12.40
2022-11-22T16:15:36.362Z,7.97
2022-11-22T16:18:15.480Z,5.60
2022-11-22T16:20:59.196Z,2.57
2022-11-22T16:23:32.521Z,2.77
2022-11-22T16:26:15.278Z,2.73
2022-11-22T16:33:58.375Z,1.93
2022-11-22T16:36:30.772Z,4.00
2022-11-22T16:38:59.673Z,1.57
2022-11-22T16:41:30.371Z,1.73
2022-11-22T16:44:01.802Z,1.50
2022-11-22T16:46:29.985Z,1.47
2022-11-22T16:48:59.688Z,1.63
2022-11-22T16:51:30.971Z,4.20
2022-11-22T16:54:01.179Z,3.47
2022-11-22T16:56:31.224Z,3.00
2022-11-22T16:58:59.866Z,2.50
2022-11-22T17:01:32.852Z,2.23
2022-11-22T17:04:03.741Z,3.03
2022-11-22T17:06:33.195Z,1.57
2022-11-22T17:09:02.162Z,1.33
2022-11-22T17:11:32.324Z,1.10
2022-11-22T17:14:01.149Z,1.13
2022-11-22T17:16:29.549Z,1.37
2022-11-22T17:18:57.847Z,1.60
2022-11-22T17:21:35.816Z,1.23
2022-11-22T17:24:07.444Z,1.70
2022-11-22T17:26:35.833Z,1.70
2022-11-22T17:29:04.146Z,2.73
2022-11-22T17:31:33.139Z,2.50
2022-11-22T17:34:01.396Z,2.70
2022-11-22T17:36:32.646Z,2.50
2022-11-22T17:39:02.583Z,4.60
2022-11-22T17:41:31.449Z,6.23
2022-11-22T17:44:00.046Z,8.03
2022-11-22T17:46:29.492Z,5.93
2022-11-22T17:48:59.572Z,3.60
2022-11-22T17:51:28.120Z,2.43
2022-11-22T17:53:58.890Z,2.47
2022-11-22T17:56:29.910Z,2.53
2022-11-22T17:58:58.316Z,1.50
2022-11-22T18:01:26.744Z,1.63
2022-11-22T18:03:54.898Z,1.40
2022-11-22T18:06:23.291Z,1.27
2022-11-22T18:08:51.767Z,1.30
2022-11-22T18:11:23.883Z,1.53
2022-11-22T18:13:52.358Z,1.50
2022-11-22T18:16:21.006Z,1.53
2022-11-22T18:18:56.785Z,1.77
2022-11-22T18:21:25.711Z,1.10
2022-11-22T18:23:53.987Z,2.93
2022-11-22T18:26:38.846Z,1.50
2022-11-22T18:29:38.981Z,1.90
2022-11-22T18:31:57.574Z,11.70
2022-11-22T18:34:26.281Z,62.60
2022-11-22T18:36:57.598Z,28.30
2022-11-22T18:39:33.303Z,18.83
2022-11-22T18:42:03.982Z,10.67
2022-11-22T18:44:32.247Z,8.67
2022-11-22T18:47:00.760Z,5.93
2022-11-22T18:49:29.596Z,4.67
2022-11-22T18:51:58.212Z,3.23
2022-11-22T18:54:26.492Z,3.57
2022-11-22T18:56:55.518Z,4.27
2022-11-22T18:59:25.101Z,3.60
2022-11-22T19:01:53.792Z,7.50
2022-11-22T19:04:22.146Z,5.97
2022-11-22T19:06:51.442Z,5.20
2022-11-22T19:09:19.828Z,4.80
2022-11-22T19:11:48.243Z,2.93
2022-11-22T19:14:16.682Z,2.50
2022-11-22T19:16:48.702Z,1.63
2022-11-22T19:19:16.835Z,1.37
2022-11-22T19:21:45.067Z,2.23
2022-11-22T19:24:13.388Z,1.30
2022-11-22T19:26:41.670Z,1.10
2022-11-22T19:29:10.066Z,1.30
2022-11-22T19:31:38.270Z,1.53
2022-11-22T19:34:07.925Z,1.20
2022-11-22T19:36:36.236Z,1.43
2022-11-22T19:39:06.201Z,1.20
2022-11-22T19:41:34.980Z,1.30
2022-11-22T19:44:03.486Z,1.17
2022-11-22T19:46:31.742Z,1.30
2022-11-22T19:49:04.542Z,1.37
2022-11-22T19:51:36.861Z,0.93
2022-11-22T19:54:06.105Z,1.23
2022-11-22T19:56:36.188Z,1.20
2022-11-22T19:59:07.001Z,0.90
2022-11-22T20:01:36.373Z,1.20
2022-11-22T20:04:08.536Z,1.40
2022-11-22T20:06:38.909Z,1.40
2022-11-22T20:09:10.184Z,1.50
2022-11-22T20:11:42.199Z,2.00
2022-11-22T20:14:10.744Z,2.57
2022-11-22T20:16:45.487Z,2.77
2022-11-22T20:19:15.757Z,2.00
2022-11-22T20:21:49.417Z,2.50
2022-11-22T20:24:17.605Z,1.50
2022-11-22T20:26:45.841Z,2.13
2022-11-22T20:29:15.207Z,1.87
2022-11-22T20:31:44.956Z,1.70
2022-11-22T20:34:15.915Z,2.10
2022-11-22T20:36:49.169Z,3.13
2022-11-22T20:39:17.548Z,2.30
2022-11-22T20:41:45.752Z,3.03
2022-11-22T20:44:20.825Z,3.37
2022-11-22T20:46:53.792Z,3.17
2022-11-22T20:49:25.003Z,4.27
2022-11-22T20:51:55.010Z,4.47
2022-11-22T20:54:23.146Z,2.83
2022-11-22T20:56:51.333Z,2.47
2022-11-22T20:59:19.493Z,3.67
2022-11-22T21:01:47.692Z,2.50
2022-11-22T21:04:18.584Z,4.03
2022-11-22T21:06:48.096Z,2.70
2022-11-22T21:09:18.440Z,2.60
2022-11-22T21:11:48.019Z,3.60
2022-11-22T21:14:22.606Z,3.80
2022-11-22T21:16:51.885Z,2.67
2022-11-22T21:19:21.085Z,3.10
2022-11-22T21:21:50.882Z,2.60
2022-11-22T21:24:20.909Z,2.37
2022-11-22T21:26:53.421Z,2.47
2022-11-22T21:29:21.659Z,2.03
2022-11-22T21:31:49.937Z,3.87
2022-11-22T21:34:18.265Z,3.27
2022-11-22T21:36:46.353Z,6.40
2022-11-22T21:39:14.592Z,3.27
2022-11-22T21:41:44.152Z,3.20
2022-11-22T21:44:12.384Z,2.80
2022-11-22T21:46:40.816Z,5.47
2022-11-22T21:49:09.130Z,1.50
2022-11-22T21:51:37.378Z,3.30
2022-11-22T21:54:05.844Z,2.80
2022-11-22T21:56:34.714Z,3.50
2022-11-22T21:59:04.808Z,4.37
2022-11-22T22:01:33.484Z,2.50
2022-11-22T22:04:01.854Z,3.30
2022-11-22T22:06:30.607Z,3.33
2022-11-22T22:08:59.026Z,2.30
2022-11-22T22:11:27.528Z,4.13
2022-11-22T22:13:58.154Z,4.10
2022-11-22T22:16:27.874Z,2.57
2022-11-22T22:18:56.223Z,3.17
2022-11-22T22:21:24.411Z,2.00
2022-11-22T22:23:53.489Z,4.23
2022-11-22T22:26:21.845Z,3.50
2022-11-22T22:28:50.336Z,3.37
2022-11-22T22:31:22.082Z,3.13
2022-11-22T22:33:54.390Z,2.47
2022-11-22T22:36:23.588Z,4.47
2022-11-22T22:38:51.985Z,1.80
2022-11-22T22:41:20.766Z,2.77
2022-11-22T22:43:50.292Z,3.23
2022-11-22T22:46:19.899Z,2.43
2022-11-22T22:48:51.831Z,3.37
2022-11-22T22:51:25.171Z,1.73
2022-11-22T22:53:56.944Z,5.03
2022-11-22T22:56:26.262Z,3.20
2022-11-22T22:58:56.394Z,3.83
2022-11-22T23:01:26.279Z,1.57
2022-11-22T23:04:08.711Z,2.63
2022-11-22T23:06:39.266Z,2.83
2022-11-22T23:09:10.701Z,1.53
2022-11-22T23:11:56.500Z,2.67
2022-11-22T23:14:26.598Z,3.50
2022-11-22T23:16:57.962Z,4.07
2022-11-22T23:19:29.175Z,3.80
2022-11-22T23:21:57.744Z,6.80
2022-11-22T23:24:25.970Z,2.80
2022-11-22T23:26:54.313Z,4.97
2022-11-22T23:29:22.554Z,1.07
2022-11-22T23:31:50.748Z,3.60
2022-11-22T23:34:19.303Z,1.30
2022-11-22T23:36:48.994Z,1.40
2022-11-22T23:39:17.452Z,2.73
2022-11-22T23:41:46.088Z,1.60
2022-11-22T23:44:14.530Z,1.63
2022-11-22T23:46:42.870Z,5.60
2022-11-22T23:49:13.033Z,2.90
2022-11-22T23:51:41.305Z,3.73
2022-11-22T23:54:11.861Z,2.03
2022-11-22T23:56:40.146Z,4.03
2022-11-22T23:59:08.608Z,5.43
